createdAt,value
2023-08-17T00:05:30.126Z,28.71
2023-08-17T00:20:32.111Z,28.49
2023-08-17T00:35:34.084Z,28.43
2023-08-17T00:50:38.055Z,28.34
2023-08-17T01:05:40.077Z,27.94
2023-08-17T01:20:43.152Z,27.73
2023-08-17T01:35:55.537Z,27.64
2023-08-17T01:50:57.750Z,27.73
2023-08-17T02:06:00.708Z,27.61
2023-08-17T02:21:02.799Z,27.79
2023-08-17T02:36:05.316Z,27.73
2023-08-17T02:51:07.362Z,27.84
2023-08-17T03:06:11.163Z,27.83
2023-08-17T03:21:13.243Z,27.87
2023-08-17T03:36:15.307Z,28.04
2023-08-17T03:51:17.347Z,28.27
2023-08-17T04:06:19.344Z,28.36
2023-08-17T04:21:21.756Z,28.76
2023-08-17T04:36:23.585Z,29.10
2023-08-17T04:51:25.675Z,29.60
2023-08-17T05:06:29.738Z,30.25
2023-08-17T05:21:31.820Z,30.64
2023-08-17T05:36:33.816Z,31.38
2023-08-17T05:51:35.896Z,32.14
2023-08-17T06:06:37.910Z,32.98
2023-08-17T06:21:39.878Z,32.98
2023-08-17T06:36:41.885Z,33.72
2023-08-17T06:51:44.064Z,34.25
2023-08-17T07:06:46.098Z,34.70
2023-08-17T07:21:48.105Z,35.22
2023-08-17T07:36:52.279Z,36.35
2023-08-17T07:51:54.325Z,36.74
2023-08-17T08:06:56.256Z,37.09
2023-08-17T08:21:58.219Z,37.80
2023-08-17T08:37:00.310Z,38.50
2023-08-17T08:52:18.500Z,37.92
2023-08-17T09:07:22.328Z,38.63
2023-08-17T09:37:55.877Z,39.13
2023-08-17T09:52:58.785Z,39.42
2023-08-17T10:08:02.780Z,40.11
2023-08-17T10:23:25.263Z,40.23
2023-08-17T10:38:27.498Z,39.19
2023-08-17T10:53:37.187Z,40.98
2023-08-17T11:08:54.493Z,40.32
2023-08-17T11:23:59.748Z,38.71
2023-08-17T11:39:01.715Z,38.52
2023-08-17T11:54:06.262Z,37.41
2023-08-17T12:09:08.275Z,36.16
2023-08-17T12:24:15.506Z,36.63
2023-08-17T12:39:17.894Z,36.48
2023-08-17T12:54:19.961Z,36.03
2023-08-17T13:09:22.845Z,36.20
2023-08-17T13:24:24.842Z,35.40
2023-08-17T13:39:29.235Z,35.45
2023-08-17T13:54:31.543Z,35.47
2023-08-17T14:09:33.589Z,34.96
2023-08-17T14:24:35.579Z,34.98
2023-08-17T14:39:38.065Z,35.18
2023-08-17T14:54:43.366Z,34.64
2023-08-17T15:09:45.661Z,35.04
2023-08-17T15:24:48.461Z,34.44
2023-08-17T15:39:51.879Z,34.43
2023-08-17T15:54:55.724Z,34.03
2023-08-17T16:10:00.179Z,33.83
2023-08-17T16:25:02.328Z,33.84
2023-08-17T16:40:05.654Z,33.31
2023-08-17T16:55:08.319Z,33.17
2023-08-17T17:10:10.935Z,32.87
2023-08-17T17:43:36.876Z,32.60
2023-08-17T17:58:39.339Z,32.20
2023-08-17T18:13:41.275Z,31.91
2023-08-17T18:28:43.192Z,31.58
2023-08-17T18:43:45.238Z,31.32
2023-08-17T18:58:51.012Z,31.16
2023-08-17T19:13:53.072Z,30.97
2023-08-17T19:28:55.073Z,30.81
2023-08-17T19:43:57.045Z,30.79
2023-08-17T19:58:59.197Z,30.72
2023-08-17T20:14:01.159Z,30.63
2023-08-17T20:29:03.353Z,30.30
2023-08-17T20:44:05.560Z,30.22
2023-08-17T20:59:07.669Z,30.05
2023-08-17T21:14:09.614Z,29.98
2023-08-17T21:29:11.693Z,29.72
2023-08-17T21:44:13.567Z,29.62
2023-08-17T21:59:15.901Z,29.63
2023-08-17T22:14:17.833Z,29.57
2023-08-17T22:29:19.794Z,29.44
2023-08-17T22:44:21.727Z,29.47
2023-08-17T22:59:23.990Z,29.49
2023-08-17T23:14:25.762Z,29.18
2023-08-17T23:29:27.707Z,28.85
2023-08-17T23:44:30.749Z,28.92
2023-08-17T23:59:33.026Z,28.80
